TFL1DE EHAM-LOWW
Flight info
| Callsign | TFL1DE |
|---|---|
| Flight time | N/A |
| Altitude | 37000 |
| Route | ARNEM L620 HMM DCT NOMKA DCT OMELO DCT EVIKU DCT BITSI DCT MIKOV MIKOV8W |
| Aircraft | B38M/M-SDE1FGHILORVWXY/HB1 |
Departure
| Time | 2026-04-29 18:18 |
|---|---|
| Airport | Amsterdam Airport Schiphol (EHAM) |
Arrival
| Time | N/A |
|---|---|
| Airport | Vienna International Airport (LOWW) |
| Time | Latitude | Longitude | Altitude | Speed | Heading |
|---|---|---|---|---|---|
| 2026-04-29 17:40 | 52.30628 | 4.76640 | 1 ft | 0 kts | 236° |
| 2026-04-29 17:48 | 52.30628 | 4.76641 | 1 ft | 0 kts | 236° |
| 2026-04-29 17:56 | 52.30628 | 4.76642 | 1 ft | 0 kts | 236° |
| 2026-04-29 18:00 | 52.30629 | 4.76642 | 1 ft | 0 kts | 236° |
| 2026-04-29 18:02 | 52.30634 | 4.76655 | 1 ft | 4 kts | 232° |
| 2026-04-29 18:03 | 52.30652 | 4.76686 | 1 ft | 4 kts | 215° |
| 2026-04-29 18:03 | 52.30676 | 4.76704 | 1 ft | 4 kts | 188° |
| 2026-04-29 18:03 | 52.30701 | 4.76701 | 1 ft | 4 kts | 158° |
| 2026-04-29 18:03 | 52.30715 | 4.76689 | 1 ft | 0 kts | 146° |
| 2026-04-29 18:08 | 52.30711 | 4.76694 | 1 ft | 3 kts | 147° |
| 2026-04-29 18:08 | 52.30678 | 4.76728 | 1 ft | 8 kts | 147° |
| 2026-04-29 18:08 | 52.30627 | 4.76786 | 1 ft | 9 kts | 130° |
| 2026-04-29 18:08 | 52.30632 | 4.76854 | 1 ft | 4 kts | 52° |
| 2026-04-29 18:09 | 52.30651 | 4.76901 | 1 ft | 6 kts | 67° |
| 2026-04-29 18:09 | 52.30653 | 4.76989 | 1 ft | 10 kts | 93° |
| 2026-04-29 18:09 | 52.30649 | 4.77119 | 1 ft | 13 kts | 92° |
| 2026-04-29 18:09 | 52.30644 | 4.77272 | 1 ft | 14 kts | 93° |
| 2026-04-29 18:10 | 52.30640 | 4.77412 | 1 ft | 11 kts | 89° |
| 2026-04-29 18:10 | 52.30647 | 4.77542 | 1 ft | 12 kts | 71° |
| 2026-04-29 18:10 | 52.30720 | 4.77593 | 1 ft | 13 kts | 3° |
| 2026-04-29 18:10 | 52.30813 | 4.77603 | 1 ft | 14 kts | 4° |
| 2026-04-29 18:11 | 52.30917 | 4.77612 | 1 ft | 16 kts | 2° |
| 2026-04-29 18:11 | 52.31030 | 4.77622 | 1 ft | 17 kts | 3° |
| 2026-04-29 18:11 | 52.31152 | 4.77633 | 1 ft | 18 kts | 2° |
| 2026-04-29 18:11 | 52.31280 | 4.77645 | 1 ft | 15 kts | 4° |
| 2026-04-29 18:12 | 52.31389 | 4.77655 | 1 ft | 13 kts | 0° |
| 2026-04-29 18:12 | 52.31454 | 4.77602 | 1 ft | 10 kts | 307° |
| 2026-04-29 18:12 | 52.31506 | 4.77518 | 1 ft | 11 kts | 315° |
| 2026-04-29 18:12 | 52.31565 | 4.77419 | 1 ft | 13 kts | 308° |
| 2026-04-29 18:13 | 52.31575 | 4.77269 | 1 ft | 14 kts | 268° |
| 2026-04-29 18:13 | 52.31569 | 4.77100 | 1 ft | 16 kts | 266° |
| 2026-04-29 18:13 | 52.31563 | 4.76921 | 1 ft | 17 kts | 267° |
| 2026-04-29 18:13 | 52.31556 | 4.76721 | 1 ft | 18 kts | 266° |
| 2026-04-29 18:14 | 52.31549 | 4.76537 | 1 ft | 14 kts | 266° |
| 2026-04-29 18:14 | 52.31543 | 4.76370 | 2 ft | 16 kts | 267° |
| 2026-04-29 18:14 | 52.31537 | 4.76184 | 2 ft | 17 kts | 266° |
| 2026-04-29 18:14 | 52.31530 | 4.75983 | 2 ft | 18 kts | 266° |
| 2026-04-29 18:15 | 52.31522 | 4.75767 | 1 ft | 20 kts | 266° |
| 2026-04-29 18:15 | 52.31516 | 4.75580 | 1 ft | 16 kts | 267° |
| 2026-04-29 18:15 | 52.31510 | 4.75390 | 1 ft | 18 kts | 266° |
| 2026-04-29 18:15 | 52.31493 | 4.75232 | 1 ft | 0 kts | 252° |
| 2026-04-29 18:16 | 52.31494 | 4.75231 | 1 ft | 1 kts | 258° |
| 2026-04-29 18:16 | 52.31497 | 4.75180 | 1 ft | 10 kts | 278° |
| 2026-04-29 18:16 | 52.31497 | 4.75033 | 1 ft | 15 kts | 267° |
| 2026-04-29 18:16 | 52.31492 | 4.74856 | 1 ft | 16 kts | 267° |
| 2026-04-29 18:17 | 52.31497 | 4.74696 | 1 ft | 14 kts | 302° |
| 2026-04-29 18:17 | 52.31587 | 4.74660 | 2 ft | 14 kts | 359° |
| 2026-04-29 18:17 | 52.31666 | 4.74739 | 2 ft | 15 kts | 82° |
| 2026-04-29 18:17 | 52.31673 | 4.74923 | -1 ft | 19 kts | 87° |
| 2026-04-29 18:18 | 52.31693 | 4.75516 | -1 ft | 90 kts | 86° |
| 2026-04-29 18:18 | 52.31747 | 4.76923 | 14 ft | 151 kts | 85° |
| 2026-04-29 18:18 | 52.31817 | 4.78722 | 462 ft | 171 kts | 86° |
| 2026-04-29 18:18 | 52.31877 | 4.80747 | 1135 ft | 184 kts | 86° |
| 2026-04-29 18:19 | 52.31941 | 4.82875 | 2003 ft | 196 kts | 87° |
| 2026-04-29 18:19 | 52.32009 | 4.85236 | 2655 ft | 216 kts | 88° |
| 2026-04-29 18:19 | 52.31925 | 4.87751 | 3511 ft | 231 kts | 102° |
| 2026-04-29 18:19 | 52.31344 | 4.90261 | 4411 ft | 238 kts | 114° |
| 2026-04-29 18:20 | 52.30627 | 4.92704 | 5469 ft | 243 kts | 114° |
| 2026-04-29 18:20 | 52.29885 | 4.95237 | 6092 ft | 251 kts | 112° |
| 2026-04-29 18:20 | 52.29258 | 4.97904 | 6228 ft | 251 kts | 105° |
| 2026-04-29 18:20 | 52.28770 | 5.00633 | 6530 ft | 252 kts | 104° |
| 2026-04-29 18:21 | 52.28311 | 5.03364 | 6665 ft | 257 kts | 104° |
| 2026-04-29 18:21 | 52.27842 | 5.06180 | 7400 ft | 255 kts | 104° |
| 2026-04-29 18:21 | 52.27367 | 5.08961 | 8388 ft | 257 kts | 104° |
| 2026-04-29 18:21 | 52.26875 | 5.11801 | 9252 ft | 262 kts | 104° |
| 2026-04-29 18:22 | 52.26369 | 5.14683 | 10158 ft | 266 kts | 103° |
| 2026-04-29 18:22 | 52.25847 | 5.17632 | 10829 ft | 277 kts | 103° |
| 2026-04-29 18:22 | 52.25344 | 5.20784 | 11213 ft | 297 kts | 100° |
| 2026-04-29 18:22 | 52.24884 | 5.24180 | 11550 ft | 317 kts | 100° |
| 2026-04-29 18:23 | 52.24383 | 5.27792 | 11933 ft | 334 kts | 101° |
| 2026-04-29 18:23 | 52.24037 | 5.30264 | 12265 ft | 341 kts | 101° |
| 2026-04-29 18:23 | 52.23505 | 5.34034 | 13095 ft | 342 kts | 100° |
| 2026-04-29 18:23 | 52.22780 | 5.39144 | 14036 ft | 349 kts | 100° |
| 2026-04-29 18:24 | 52.22415 | 5.41704 | 14475 ft | 351 kts | 100° |
| 2026-04-29 18:24 | 52.21859 | 5.45602 | 15092 ft | 355 kts | 100° |
| 2026-04-29 18:24 | 52.21108 | 5.50842 | 15912 ft | 360 kts | 100° |
| 2026-04-29 18:24 | 52.20536 | 5.54833 | 16534 ft | 364 kts | 100° |
| 2026-04-29 18:25 | 52.20144 | 5.57557 | 16936 ft | 366 kts | 100° |
| 2026-04-29 18:25 | 52.19566 | 5.61564 | 17528 ft | 370 kts | 101° |
| 2026-04-29 18:25 | 52.18974 | 5.65660 | 18122 ft | 374 kts | 101° |
| 2026-04-29 18:25 | 52.18374 | 5.69800 | 18705 ft | 377 kts | 101° |
| 2026-04-29 18:26 | 52.17767 | 5.73975 | 19200 ft | 380 kts | 101° |
| 2026-04-29 18:26 | 52.17154 | 5.78178 | 19725 ft | 383 kts | 101° |
| 2026-04-29 18:26 | 52.16536 | 5.82408 | 20223 ft | 386 kts | 101° |
| 2026-04-29 18:26 | 52.15911 | 5.86675 | 20729 ft | 388 kts | 101° |
| 2026-04-29 18:27 | 52.15281 | 5.90962 | 21234 ft | 391 kts | 101° |
| 2026-04-29 18:27 | 52.14645 | 5.95283 | 21735 ft | 394 kts | 101° |
| 2026-04-29 18:27 | 52.14001 | 5.99637 | 22221 ft | 397 kts | 101° |
| 2026-04-29 18:27 | 52.13352 | 6.04020 | 22698 ft | 400 kts | 101° |
| 2026-04-29 18:28 | 52.12706 | 6.08365 | 23158 ft | 402 kts | 101° |
| 2026-04-29 18:28 | 52.12046 | 6.12797 | 23538 ft | 404 kts | 101° |
| 2026-04-29 18:28 | 52.11380 | 6.17253 | 23928 ft | 406 kts | 101° |
| 2026-04-29 18:28 | 52.10710 | 6.21726 | 24244 ft | 408 kts | 101° |
| 2026-04-29 18:29 | 52.10034 | 6.26223 | 24572 ft | 410 kts | 101° |
| 2026-04-29 18:29 | 52.09353 | 6.30741 | 24897 ft | 412 kts | 101° |
| 2026-04-29 18:29 | 52.08669 | 6.35267 | 25217 ft | 413 kts | 101° |
| 2026-04-29 18:29 | 52.07980 | 6.39811 | 25556 ft | 415 kts | 100° |
| 2026-04-29 18:30 | 52.07288 | 6.44373 | 25859 ft | 417 kts | 100° |
| 2026-04-29 18:30 | 52.06589 | 6.48957 | 26171 ft | 418 kts | 100° |
| 2026-04-29 18:30 | 52.05897 | 6.53484 | 26468 ft | 420 kts | 100° |
| 2026-04-29 18:30 | 52.05190 | 6.58095 | 26765 ft | 421 kts | 100° |
| 2026-04-29 18:31 | 52.04479 | 6.62716 | 27064 ft | 423 kts | 100° |
| 2026-04-29 18:31 | 52.03764 | 6.67358 | 27332 ft | 424 kts | 100° |
| 2026-04-29 18:31 | 52.03044 | 6.72016 | 27615 ft | 426 kts | 100° |
| 2026-04-29 18:31 | 52.02360 | 6.76695 | 27888 ft | 426 kts | 98° |
| 2026-04-29 18:32 | 52.01768 | 6.81426 | 28152 ft | 428 kts | 98° |
| 2026-04-29 18:32 | 51.99916 | 6.90600 | 28713 ft | 435 kts | 107° |
| 2026-04-29 18:32 | 51.98796 | 6.95167 | 28970 ft | 436 kts | 107° |
| 2026-04-29 18:33 | 51.97667 | 6.99747 | 29203 ft | 438 kts | 107° |
| 2026-04-29 18:33 | 51.96531 | 7.04338 | 29443 ft | 439 kts | 107° |
| 2026-04-29 18:33 | 51.95391 | 7.08938 | 29683 ft | 441 kts | 107° |
| 2026-04-29 18:33 | 51.94245 | 7.13552 | 29974 ft | 441 kts | 107° |
| 2026-04-29 18:34 | 51.93099 | 7.18146 | 30322 ft | 439 kts | 107° |
| 2026-04-29 18:34 | 51.92339 | 7.21184 | 30529 ft | 439 kts | 107° |
| 2026-04-29 18:34 | 51.90979 | 7.27365 | 30893 ft | 431 kts | 96° |
| 2026-04-29 18:34 | 51.90515 | 7.32062 | 31192 ft | 428 kts | 97° |
| 2026-04-29 18:35 | 51.89933 | 7.36788 | 31478 ft | 428 kts | 97° |
| 2026-04-29 18:35 | 51.89335 | 7.41500 | 31769 ft | 427 kts | 97° |
| 2026-04-29 18:35 | 51.88731 | 7.46195 | 32049 ft | 426 kts | 97° |
| 2026-04-29 18:35 | 51.88124 | 7.50879 | 32308 ft | 425 kts | 97° |
| 2026-04-29 18:36 | 51.87517 | 7.55548 | 32568 ft | 424 kts | 97° |
| 2026-04-29 18:36 | 51.86908 | 7.60215 | 32820 ft | 423 kts | 97° |
| 2026-04-29 18:36 | 51.86299 | 7.64870 | 33076 ft | 422 kts | 97° |
| 2026-04-29 18:36 | 51.85690 | 7.69505 | 33312 ft | 421 kts | 97° |
| 2026-04-29 18:37 | 51.85088 | 7.74073 | 33552 ft | 421 kts | 97° |
| 2026-04-29 18:37 | 51.84476 | 7.78700 | 33780 ft | 420 kts | 97° |
| 2026-04-29 18:37 | 51.83865 | 7.83310 | 34037 ft | 419 kts | 97° |
| 2026-04-29 18:37 | 51.83251 | 7.87916 | 34260 ft | 419 kts | 97° |
| 2026-04-29 18:38 | 51.82638 | 7.92511 | 34447 ft | 418 kts | 97° |
| 2026-04-29 18:38 | 51.82023 | 7.97102 | 34600 ft | 418 kts | 97° |
| 2026-04-29 18:38 | 51.81406 | 8.01697 | 34730 ft | 419 kts | 97° |
| 2026-04-29 18:38 | 51.80786 | 8.06292 | 34861 ft | 419 kts | 97° |
| 2026-04-29 18:39 | 51.80163 | 8.10901 | 34986 ft | 420 kts | 97° |
| 2026-04-29 18:39 | 51.79538 | 8.15506 | 35110 ft | 420 kts | 97° |
| 2026-04-29 18:39 | 51.78910 | 8.20124 | 35241 ft | 421 kts | 97° |
| 2026-04-29 18:39 | 51.78280 | 8.24736 | 35375 ft | 421 kts | 97° |
| 2026-04-29 18:40 | 51.77656 | 8.29296 | 35505 ft | 422 kts | 97° |
| 2026-04-29 18:40 | 51.77019 | 8.33932 | 35603 ft | 423 kts | 97° |
| 2026-04-29 18:40 | 51.76381 | 8.38565 | 35714 ft | 424 kts | 97° |
| 2026-04-29 18:40 | 51.75738 | 8.43213 | 35828 ft | 424 kts | 97° |
| 2026-04-29 18:41 | 51.73798 | 8.57159 | 36140 ft | 425 kts | 97° |
| 2026-04-29 18:41 | 51.73148 | 8.61805 | 36241 ft | 426 kts | 97° |
| 2026-04-29 18:42 | 51.72492 | 8.66474 | 36351 ft | 426 kts | 97° |
| 2026-04-29 18:42 | 51.71835 | 8.71140 | 36424 ft | 427 kts | 97° |
| 2026-04-29 18:42 | 51.71175 | 8.75819 | 36548 ft | 428 kts | 97° |
| 2026-04-29 18:42 | 51.70520 | 8.80436 | 36602 ft | 429 kts | 97° |
| 2026-04-29 18:43 | 51.69183 | 8.89830 | 36780 ft | 430 kts | 97° |
| 2026-04-29 18:43 | 51.67836 | 8.99227 | 36951 ft | 431 kts | 97° |
| 2026-04-29 18:44 | 51.66480 | 9.08638 | 37130 ft | 432 kts | 97° |
| 2026-04-29 18:44 | 51.65114 | 9.18059 | 37323 ft | 431 kts | 97° |
| 2026-04-29 18:45 | 51.63742 | 9.27458 | 37396 ft | 432 kts | 97° |
| 2026-04-29 18:45 | 51.62369 | 9.36817 | 37406 ft | 433 kts | 97° |
| 2026-04-29 18:46 | 51.60977 | 9.46238 | 37380 ft | 433 kts | 98° |
| 2026-04-29 18:46 | 51.59579 | 9.55648 | 37387 ft | 433 kts | 98° |
| 2026-04-29 18:47 | 51.58174 | 9.65050 | 37384 ft | 432 kts | 98° |
| 2026-04-29 18:47 | 51.56758 | 9.74467 | 37387 ft | 434 kts | 98° |
| 2026-04-29 18:48 | 51.55333 | 9.83887 | 37398 ft | 434 kts | 98° |
| 2026-04-29 18:48 | 51.53911 | 9.93235 | 37397 ft | 434 kts | 98° |
| 2026-04-29 18:49 | 51.52471 | 10.02647 | 37403 ft | 434 kts | 98° |
| 2026-04-29 18:49 | 51.51022 | 10.12060 | 37402 ft | 434 kts | 98° |
| 2026-04-29 18:50 | 51.49563 | 10.21479 | 37414 ft | 436 kts | 98° |
| 2026-04-29 18:50 | 51.48095 | 10.30908 | 37407 ft | 436 kts | 98° |
| 2026-04-29 18:51 | 51.46628 | 10.40276 | 37409 ft | 436 kts | 98° |
| 2026-04-29 18:51 | 51.45143 | 10.49696 | 37414 ft | 436 kts | 98° |
| 2026-04-29 18:52 | 51.43652 | 10.59112 | 37411 ft | 436 kts | 98° |
| 2026-04-29 18:52 | 51.42151 | 10.68531 | 37427 ft | 437 kts | 98° |
| 2026-04-29 18:53 | 51.40639 | 10.77965 | 37411 ft | 437 kts | 98° |
| 2026-04-29 18:53 | 51.39129 | 10.87332 | 37419 ft | 437 kts | 99° |
| 2026-04-29 18:54 | 51.37603 | 10.96748 | 37428 ft | 437 kts | 99° |
| 2026-04-29 18:54 | 51.36068 | 11.06167 | 37458 ft | 437 kts | 99° |
| 2026-04-29 18:55 | 51.34523 | 11.15594 | 37424 ft | 439 kts | 99° |
| 2026-04-29 18:55 | 51.32968 | 11.25031 | 37426 ft | 439 kts | 99° |
| 2026-04-29 18:56 | 51.31405 | 11.34462 | 37430 ft | 439 kts | 99° |
| 2026-04-29 18:56 | 51.29844 | 11.43830 | 37429 ft | 439 kts | 99° |
| 2026-04-29 18:57 | 51.28266 | 11.53250 | 37462 ft | 439 kts | 99° |
| 2026-04-29 18:57 | 51.26675 | 11.62696 | 37434 ft | 440 kts | 99° |
| 2026-04-29 18:58 | 51.25076 | 11.72132 | 37431 ft | 440 kts | 99° |
| 2026-04-29 18:58 | 51.23470 | 11.81565 | 37429 ft | 440 kts | 99° |
| 2026-04-29 18:59 | 51.21856 | 11.90990 | 37433 ft | 441 kts | 99° |
| 2026-04-29 18:59 | 51.20245 | 12.00349 | 37454 ft | 442 kts | 100° |
| 2026-04-29 19:00 | 51.18608 | 12.09807 | 37433 ft | 443 kts | 100° |
| 2026-04-29 19:00 | 51.16963 | 12.19260 | 37420 ft | 443 kts | 100° |
| 2026-04-29 19:01 | 51.15306 | 12.28730 | 37432 ft | 444 kts | 100° |
| 2026-04-29 19:01 | 51.13643 | 12.38192 | 37428 ft | 444 kts | 100° |
| 2026-04-29 19:02 | 51.12253 | 12.46058 | 37443 ft | 445 kts | 100° |
| 2026-04-29 19:02 | 51.10286 | 12.57125 | 37430 ft | 448 kts | 100° |
| 2026-04-29 19:03 | 51.08585 | 12.66647 | 37425 ft | 448 kts | 100° |
| 2026-04-29 19:03 | 51.06874 | 12.76170 | 37428 ft | 448 kts | 101° |
| 2026-04-29 19:04 | 51.05156 | 12.85686 | 37422 ft | 448 kts | 101° |
| 2026-04-29 19:04 | 51.03425 | 12.95222 | 37421 ft | 451 kts | 101° |
| 2026-04-29 19:05 | 51.01689 | 13.04733 | 37419 ft | 451 kts | 101° |
| 2026-04-29 19:05 | 50.99935 | 13.14297 | 37413 ft | 451 kts | 101° |
| 2026-04-29 19:06 | 50.98173 | 13.23856 | 37417 ft | 451 kts | 101° |
| 2026-04-29 19:07 | 50.95509 | 13.38212 | 37068 ft | 452 kts | 101° |
| 2026-04-29 19:07 | 50.94919 | 13.41376 | 36903 ft | 452 kts | 101° |
| 2026-04-29 19:07 | 50.93727 | 13.47756 | 36582 ft | 450 kts | 101° |
| 2026-04-29 19:07 | 50.92847 | 13.52444 | 36347 ft | 449 kts | 101° |
| 2026-04-29 19:08 | 50.91957 | 13.57180 | 36100 ft | 448 kts | 101° |
| 2026-04-29 19:08 | 50.91067 | 13.61904 | 35865 ft | 447 kts | 101° |
| 2026-04-29 19:08 | 50.90177 | 13.66616 | 35631 ft | 445 kts | 101° |
| 2026-04-29 19:08 | 50.89288 | 13.71308 | 35453 ft | 444 kts | 100° |
| 2026-04-29 19:09 | 50.88401 | 13.75984 | 35425 ft | 443 kts | 101° |
| 2026-04-29 19:09 | 50.86615 | 13.85352 | 35429 ft | 445 kts | 101° |
| 2026-04-29 19:10 | 50.84819 | 13.94717 | 35425 ft | 445 kts | 102° |
| 2026-04-29 19:10 | 50.83573 | 13.99175 | 35407 ft | 455 kts | 116° |
| 2026-04-29 19:10 | 50.81570 | 14.03126 | 35422 ft | 467 kts | 130° |
| 2026-04-29 19:11 | 50.76791 | 14.10169 | 35417 ft | 471 kts | 131° |
| 2026-04-29 19:11 | 50.71962 | 14.17167 | 35452 ft | 472 kts | 132° |
| 2026-04-29 19:12 | 50.67094 | 14.24166 | 35421 ft | 474 kts | 133° |
| 2026-04-29 19:12 | 50.62245 | 14.31117 | 35410 ft | 474 kts | 133° |
| 2026-04-29 19:13 | 50.57358 | 14.38102 | 35411 ft | 474 kts | 133° |
| 2026-04-29 19:13 | 50.52467 | 14.45073 | 35408 ft | 475 kts | 133° |
| 2026-04-29 19:14 | 50.47570 | 14.52032 | 35450 ft | 475 kts | 133° |
| 2026-04-29 19:14 | 50.42814 | 14.59232 | 35420 ft | 476 kts | 130° |
| 2026-04-29 19:15 | 50.38083 | 14.66416 | 35410 ft | 478 kts | 131° |
| 2026-04-29 19:15 | 50.33289 | 14.73662 | 35415 ft | 479 kts | 131° |
| 2026-04-29 19:16 | 50.28494 | 14.80890 | 35419 ft | 479 kts | 131° |
| 2026-04-29 19:16 | 50.23697 | 14.88100 | 35442 ft | 479 kts | 131° |
| 2026-04-29 19:17 | 50.18859 | 14.95347 | 35415 ft | 483 kts | 131° |
| 2026-04-29 19:17 | 50.14011 | 15.02588 | 35406 ft | 483 kts | 131° |
| 2026-04-29 19:18 | 50.09191 | 15.09769 | 35400 ft | 483 kts | 131° |
| 2026-04-29 19:18 | 50.04338 | 15.16975 | 35398 ft | 483 kts | 131° |
| 2026-04-29 19:19 | 49.99471 | 15.24182 | 35422 ft | 484 kts | 131° |
| 2026-04-29 19:19 | 49.94586 | 15.31395 | 35390 ft | 485 kts | 132° |
| 2026-04-29 19:20 | 49.89693 | 15.38597 | 35392 ft | 485 kts | 132° |
| 2026-04-29 19:20 | 49.84830 | 15.45735 | 35394 ft | 485 kts | 132° |
| 2026-04-29 19:21 | 49.79918 | 15.52923 | 35388 ft | 488 kts | 133° |
| 2026-04-29 19:21 | 49.74969 | 15.60146 | 35403 ft | 490 kts | 133° |
| 2026-04-29 19:22 | 49.70002 | 15.67371 | 35379 ft | 490 kts | 133° |
| 2026-04-29 19:22 | 49.65032 | 15.74581 | 35383 ft | 490 kts | 133° |
| 2026-04-29 19:23 | 49.60057 | 15.81776 | 35375 ft | 490 kts | 133° |
| 2026-04-29 19:23 | 49.55077 | 15.88957 | 35409 ft | 490 kts | 133° |
| 2026-04-29 19:24 | 49.50082 | 15.96141 | 35059 ft | 492 kts | 134° |
| 2026-04-29 19:24 | 49.47608 | 15.99690 | 34317 ft | 493 kts | 134° |
| 2026-04-29 19:24 | 49.45110 | 16.03269 | 33328 ft | 489 kts | 134° |
| 2026-04-29 19:24 | 49.42632 | 16.06814 | 32491 ft | 486 kts | 133° |
| 2026-04-29 19:25 | 49.40164 | 16.10342 | 31793 ft | 484 kts | 133° |
| 2026-04-29 19:25 | 49.37695 | 16.13867 | 31014 ft | 487 kts | 133° |
| 2026-04-29 19:25 | 49.35211 | 16.17407 | 30143 ft | 487 kts | 133° |
| 2026-04-29 19:25 | 49.32675 | 16.20869 | 29201 ft | 489 kts | 136° |
| 2026-04-29 19:26 | 49.29988 | 16.24082 | 28331 ft | 493 kts | 145° |
| 2026-04-29 19:26 | 49.26955 | 16.26589 | 27449 ft | 496 kts | 147° |
| 2026-04-29 19:26 | 49.24220 | 16.29745 | 26523 ft | 492 kts | 132° |
| 2026-04-29 19:26 | 49.21980 | 16.33685 | 25698 ft | 492 kts | 126° |
| 2026-04-29 19:27 | 49.19844 | 16.37754 | 24889 ft | 489 kts | 125° |
| 2026-04-29 19:27 | 49.17721 | 16.41785 | 24144 ft | 483 kts | 125° |
| 2026-04-29 19:27 | 49.15619 | 16.45752 | 23266 ft | 477 kts | 125° |
| 2026-04-29 19:27 | 49.13546 | 16.49660 | 22377 ft | 472 kts | 125° |
| 2026-04-29 19:28 | 49.11511 | 16.53499 | 21523 ft | 471 kts | 125° |
| 2026-04-29 19:28 | 49.09465 | 16.57385 | 20704 ft | 466 kts | 126° |
| 2026-04-29 19:28 | 49.07480 | 16.61233 | 19869 ft | 458 kts | 125° |
| 2026-04-29 19:28 | 49.05523 | 16.65037 | 19080 ft | 454 kts | 125° |
| 2026-04-29 19:29 | 49.03587 | 16.68798 | 18241 ft | 448 kts | 125° |
| 2026-04-29 19:29 | 49.01674 | 16.72510 | 17330 ft | 442 kts | 125° |
| 2026-04-29 19:29 | 48.99776 | 16.76141 | 16465 ft | 435 kts | 129° |
| 2026-04-29 19:29 | 48.97461 | 16.79025 | 15580 ft | 430 kts | 150° |
| 2026-04-29 19:30 | 48.94666 | 16.80446 | 14741 ft | 421 kts | 174° |
| 2026-04-29 19:30 | 48.91789 | 16.80367 | 13958 ft | 409 kts | 191° |
| 2026-04-29 19:30 | 48.89087 | 16.79289 | 13213 ft | 395 kts | 204° |
| 2026-04-29 19:30 | 48.86743 | 16.77400 | 13024 ft | 367 kts | 220° |
| 2026-04-29 19:31 | 48.84966 | 16.74890 | 13070 ft | 333 kts | 236° |
| 2026-04-29 19:31 | 48.83659 | 16.72212 | 13079 ft | 309 kts | 238° |
| 2026-04-29 19:31 | 48.82402 | 16.69675 | 13077 ft | 297 kts | 237° |
| 2026-04-29 19:31 | 48.81137 | 16.67202 | 13047 ft | 296 kts | 237° |
| 2026-04-29 19:32 | 48.79759 | 16.64876 | 13024 ft | 300 kts | 221° |
| 2026-04-29 19:32 | 48.77894 | 16.63425 | 13031 ft | 307 kts | 197° |